createdAt,value
2023-03-29T00:01:45.974Z,56.34
2023-03-29T00:04:13.944Z,56.20
2023-03-29T00:06:41.987Z,56.98
2023-03-29T00:09:09.941Z,56.68
2023-03-29T00:11:36.519Z,57.19
2023-03-29T00:14:03.226Z,57.86
2023-03-29T00:16:29.775Z,58.33
2023-03-29T00:18:56.535Z,57.65
2023-03-29T00:21:23.021Z,57.77
2023-03-29T00:23:49.462Z,57.34
2023-03-29T00:26:16.001Z,57.01
2023-03-29T00:28:42.453Z,56.75
2023-03-29T00:31:12.634Z,56.45
2023-03-29T00:33:40.245Z,56.22
2023-03-29T00:36:08.581Z,56.25
2023-03-29T00:38:35.322Z,55.00
2023-03-29T00:41:02.757Z,55.62
2023-03-29T00:43:29.855Z,56.29
2023-03-29T00:45:56.363Z,55.65
2023-03-29T00:48:29.871Z,56.26
2023-03-29T00:51:09.779Z,54.95
2023-03-29T00:53:42.349Z,54.24
2023-03-29T00:56:16.755Z,54.34
2023-03-29T00:59:04.846Z,53.73
2023-03-29T01:01:54.989Z,53.39
2023-03-29T01:04:29.330Z,50.00
2023-03-29T01:07:06.415Z,50.26
2023-03-29T01:09:37.384Z,49.73
2023-03-29T01:12:11.411Z,48.79
2023-03-29T01:14:44.840Z,50.17
2023-03-29T01:17:12.797Z,50.15
2023-03-29T01:19:45.324Z,50.51
2023-03-29T01:22:38.863Z,51.47
2023-03-29T01:25:17.595Z,52.62
2023-03-29T01:27:57.706Z,52.82
2023-03-29T01:30:30.461Z,52.32
2023-03-29T01:33:24.841Z,52.57
2023-03-29T01:35:59.920Z,51.61
2023-03-29T01:38:35.726Z,51.12
2023-03-29T01:41:03.571Z,50.99
2023-03-29T01:43:48.642Z,50.77
2023-03-29T01:46:20.725Z,50.41
2023-03-29T01:48:57.515Z,51.32
2023-03-29T01:51:31.083Z,50.66
2023-03-29T01:54:06.029Z,50.90
2023-03-29T01:56:36.871Z,50.99
2023-03-29T01:59:08.307Z,50.76
2023-03-29T02:01:40.662Z,51.53
2023-03-29T02:04:13.433Z,51.51
2023-03-29T02:06:41.584Z,52.54
2023-03-29T02:09:08.432Z,53.42
2023-03-29T02:11:36.137Z,53.61
2023-03-29T02:14:02.758Z,53.44
2023-03-29T02:16:37.101Z,53.88
2023-03-29T02:19:03.994Z,55.55
2023-03-29T02:22:03.932Z,56.71
2023-03-29T02:24:32.750Z,56.89
2023-03-29T02:26:59.726Z,56.39
2023-03-29T02:29:26.322Z,55.49
2023-03-29T02:32:06.285Z,55.77
2023-03-29T02:34:38.904Z,55.14
2023-03-29T02:37:17.501Z,55.78
2023-03-29T02:39:48.518Z,55.51
2023-03-29T02:42:17.591Z,55.35
2023-03-29T02:44:45.440Z,55.70
2023-03-29T02:47:24.441Z,56.16
2023-03-29T02:49:50.967Z,57.21
2023-03-29T02:52:23.972Z,57.41
2023-03-29T02:54:54.438Z,56.89
2023-03-29T02:57:26.579Z,56.95
2023-03-29T02:59:56.929Z,57.31
2023-03-29T03:02:25.969Z,57.41
2023-03-29T03:04:54.015Z,57.81
2023-03-29T03:07:20.961Z,57.87
2023-03-29T03:09:47.798Z,58.50
2023-03-29T03:12:14.497Z,58.12
2023-03-29T03:14:40.940Z,58.53
2023-03-29T03:17:07.394Z,58.67
2023-03-29T03:19:33.892Z,58.59
2023-03-29T03:22:00.436Z,58.35
2023-03-29T03:24:28.101Z,59.82
2023-03-29T03:26:55.378Z,60.00
2023-03-29T03:29:21.920Z,60.88
2023-03-29T03:32:00.860Z,62.35
2023-03-29T03:34:42.412Z,62.55
2023-03-29T03:37:11.887Z,63.68
2023-03-29T03:39:39.124Z,63.80
2023-03-29T03:42:08.574Z,64.17
2023-03-29T03:44:39.566Z,64.18
2023-03-29T03:47:32.249Z,65.80
2023-03-29T03:50:18.461Z,66.88
2023-03-29T03:52:45.071Z,67.02
2023-03-29T03:55:12.234Z,66.71
2023-03-29T03:57:47.859Z,65.17
2023-03-29T04:00:20.285Z,65.03
2023-03-29T04:03:06.072Z,67.42
2023-03-29T04:05:33.921Z,68.71
2023-03-29T04:08:00.788Z,69.26
2023-03-29T04:10:53.968Z,70.05
2023-03-29T04:13:26.494Z,70.66
2023-03-29T04:16:13.348Z,71.00
2023-03-29T04:18:40.373Z,71.06
2023-03-29T04:21:07.282Z,71.62
2023-03-29T04:23:36.029Z,70.42
2023-03-29T04:26:02.565Z,69.21
2023-03-29T04:28:50.045Z,67.76
2023-03-29T04:31:39.426Z,67.23
2023-03-29T04:34:25.332Z,65.98
2023-03-29T04:36:54.220Z,66.54
2023-03-29T04:39:33.879Z,66.30
2023-03-29T04:42:03.872Z,65.84
2023-03-29T04:44:34.941Z,66.86
2023-03-29T04:47:04.794Z,65.53
2023-03-29T04:49:49.654Z,65.22
2023-03-29T04:52:32.935Z,65.76
2023-03-29T04:55:01.555Z,65.87
2023-03-29T04:57:57.434Z,66.22
2023-03-29T05:00:31.529Z,67.51
2023-03-29T05:03:14.553Z,67.11
2023-03-29T05:06:06.824Z,65.79
2023-03-29T05:08:38.840Z,65.96
2023-03-29T05:11:29.193Z,66.75
2023-03-29T05:13:57.202Z,66.12
2023-03-29T05:16:26.428Z,66.66
2023-03-29T05:18:58.744Z,66.51
2023-03-29T05:21:31.219Z,65.86
2023-03-29T05:24:02.710Z,65.82
2023-03-29T05:26:47.914Z,66.03
2023-03-29T05:29:14.385Z,65.45
2023-03-29T05:31:43.789Z,64.79
2023-03-29T05:34:10.831Z,64.34
2023-03-29T05:36:45.287Z,64.71
2023-03-29T05:39:12.438Z,64.42
2023-03-29T05:41:39.774Z,63.59
2023-03-29T05:44:24.876Z,64.03
2023-03-29T05:46:57.403Z,63.98
2023-03-29T05:49:24.078Z,64.92
2023-03-29T05:52:13.106Z,65.85
2023-03-29T05:54:40.219Z,67.28
2023-03-29T05:57:07.110Z,68.60
2023-03-29T05:59:33.806Z,66.66
2023-03-29T06:02:03.055Z,66.60
2023-03-29T06:04:30.761Z,66.99
2023-03-29T06:07:16.372Z,66.85
2023-03-29T06:09:47.548Z,66.46
2023-03-29T06:12:16.078Z,65.97
2023-03-29T06:14:49.445Z,64.34
2023-03-29T06:17:22.338Z,64.75
2023-03-29T06:19:48.914Z,65.17
2023-03-29T06:22:17.289Z,65.78
2023-03-29T06:24:43.933Z,66.15
2023-03-29T06:27:21.800Z,66.47
2023-03-29T06:29:48.449Z,66.47
2023-03-29T06:32:15.035Z,66.26
2023-03-29T06:34:47.086Z,66.20
2023-03-29T06:37:23.732Z,66.48
2023-03-29T06:40:00.952Z,64.60
2023-03-29T06:42:34.374Z,64.37
2023-03-29T06:45:25.771Z,63.75
2023-03-29T06:47:54.696Z,63.28
2023-03-29T06:50:23.242Z,63.49
2023-03-29T06:53:04.394Z,62.93
2023-03-29T06:55:31.642Z,62.73
2023-03-29T06:58:08.196Z,62.61
2023-03-29T07:00:37.885Z,62.21
2023-03-29T07:03:20.248Z,62.22
2023-03-29T07:05:51.889Z,59.29
2023-03-29T07:08:21.448Z,61.28
2023-03-29T07:10:59.276Z,60.91
2023-03-29T07:13:46.199Z,57.29
2023-03-29T07:16:17.412Z,54.22
2023-03-29T07:19:03.708Z,55.14
2023-03-29T07:21:48.667Z,55.51
2023-03-29T07:24:15.664Z,52.96
2023-03-29T07:26:52.202Z,49.92
2023-03-29T07:29:22.840Z,49.88
2023-03-29T07:31:50.569Z,49.19
2023-03-29T07:34:42.895Z,49.62
2023-03-29T07:37:17.174Z,48.42
2023-03-29T07:39:45.342Z,46.84
2023-03-29T07:42:30.263Z,46.48
2023-03-29T07:44:58.486Z,45.92
2023-03-29T07:47:30.938Z,46.94
2023-03-29T07:49:59.037Z,46.68
2023-03-29T07:52:28.006Z,45.33
2023-03-29T07:54:55.616Z,45.50
2023-03-29T07:57:27.442Z,46.12
2023-03-29T07:59:56.256Z,44.68
2023-03-29T08:02:29.680Z,45.44
2023-03-29T08:05:01.604Z,43.98
2023-03-29T08:08:00.889Z,45.28
2023-03-29T08:10:42.606Z,43.95
2023-03-29T08:13:14.675Z,44.78
2023-03-29T08:15:50.195Z,45.21
2023-03-29T08:18:34.244Z,43.92
2023-03-29T08:21:02.212Z,43.68
2023-03-29T08:23:28.846Z,43.78
2023-03-29T08:26:04.989Z,44.06
2023-03-29T08:28:32.162Z,44.13
2023-03-29T08:31:00.140Z,43.66
2023-03-29T08:33:27.123Z,43.48
2023-03-29T08:36:16.662Z,42.51
2023-03-29T08:38:43.361Z,42.77
2023-03-29T08:41:29.701Z,43.35
2023-03-29T08:44:10.707Z,43.02
2023-03-29T08:47:03.972Z,42.59
2023-03-29T08:49:43.922Z,42.08
2023-03-29T08:52:23.845Z,42.47
2023-03-29T08:54:55.961Z,41.08
2023-03-29T08:57:47.875Z,41.18
2023-03-29T09:00:45.985Z,40.49
2023-03-29T09:03:59.622Z,40.86
2023-03-29T09:06:40.578Z,40.42
2023-03-29T09:09:22.619Z,39.67
2023-03-29T09:12:12.810Z,40.20
2023-03-29T09:14:57.270Z,39.09
2023-03-29T09:17:52.987Z,39.17
2023-03-29T09:20:24.189Z,38.04
2023-03-29T09:23:25.741Z,39.02
2023-03-29T09:26:47.550Z,38.12
2023-03-29T09:29:25.314Z,39.02
2023-03-29T09:31:53.297Z,38.75
2023-03-29T09:34:24.061Z,39.08
2023-03-29T09:37:08.254Z,37.30
2023-03-29T09:39:37.931Z,37.47
2023-03-29T09:42:11.993Z,36.83
2023-03-29T09:44:44.978Z,36.95
2023-03-29T09:47:25.039Z,37.46
2023-03-29T09:49:58.690Z,36.40
2023-03-29T09:52:25.447Z,36.97
2023-03-29T09:55:04.006Z,36.71
2023-03-29T09:57:50.156Z,36.00
2023-03-29T10:00:19.085Z,36.40
2023-03-29T10:02:57.775Z,37.65
2023-03-29T10:05:39.983Z,36.82
2023-03-29T10:08:20.020Z,36.76
2023-03-29T10:10:47.277Z,38.12
2023-03-29T10:13:20.664Z,37.07
2023-03-29T10:15:58.128Z,37.37
2023-03-29T10:18:25.241Z,37.98
2023-03-29T10:20:58.808Z,36.55
2023-03-29T10:23:34.051Z,37.41
2023-03-29T10:26:04.271Z,37.33
2023-03-29T10:28:32.024Z,36.75
2023-03-29T10:31:01.548Z,36.97
2023-03-29T10:33:31.705Z,37.29
2023-03-29T10:35:59.161Z,36.26
2023-03-29T10:38:29.659Z,36.84
2023-03-29T10:41:05.723Z,36.60
2023-03-29T10:43:37.272Z,35.91
2023-03-29T10:46:31.815Z,36.66
2023-03-29T10:49:02.514Z,36.48
2023-03-29T10:51:32.310Z,35.98
2023-03-29T10:53:59.831Z,36.92
2023-03-29T10:56:32.310Z,36.02
2023-03-29T10:59:40.947Z,35.24
2023-03-29T11:02:13.565Z,33.63
2023-03-29T11:05:00.142Z,33.72
2023-03-29T11:07:41.892Z,34.53
2023-03-29T11:10:38.470Z,34.52
2023-03-29T11:13:16.850Z,34.05
2023-03-29T11:16:01.719Z,34.14
2023-03-29T11:18:48.555Z,32.71
2023-03-29T11:21:24.883Z,33.81
2023-03-29T11:24:25.622Z,33.02
2023-03-29T11:27:51.041Z,31.15
2023-03-29T11:30:45.943Z,32.31
2023-03-29T11:33:37.478Z,31.78
2023-03-29T11:36:25.901Z,32.90
2023-03-29T11:39:11.359Z,32.54
2023-03-29T11:41:45.176Z,31.79
2023-03-29T11:44:26.994Z,32.11
2023-03-29T11:47:02.271Z,31.51
2023-03-29T11:49:37.310Z,31.65
2023-03-29T11:52:10.354Z,31.30
2023-03-29T11:54:52.246Z,31.11
2023-03-29T11:57:30.922Z,30.68
2023-03-29T12:00:32.978Z,29.11
2023-03-29T12:03:34.362Z,29.94
2023-03-29T12:06:13.977Z,29.78
2023-03-29T12:08:47.045Z,28.39
2023-03-29T12:11:31.172Z,29.62
2023-03-29T12:14:11.775Z,29.11
2023-03-29T12:16:49.318Z,29.85
2023-03-29T12:19:25.760Z,28.85
2023-03-29T12:21:54.578Z,29.03
2023-03-29T12:24:21.656Z,30.73
2023-03-29T12:27:27.095Z,31.00
2023-03-29T12:30:33.190Z,31.28
2023-03-29T12:33:31.759Z,30.66
2023-03-29T12:36:48.198Z,32.03
2023-03-29T12:39:33.589Z,33.15
2023-03-29T12:42:25.834Z,31.74
2023-03-29T12:45:19.209Z,32.49
2023-03-29T12:47:47.269Z,31.57
2023-03-29T12:50:28.470Z,32.27
2023-03-29T12:53:13.384Z,31.37
2023-03-29T12:55:55.846Z,31.07
2023-03-29T12:58:38.466Z,31.75
2023-03-29T13:01:27.348Z,30.22
2023-03-29T13:03:59.984Z,31.07
2023-03-29T13:06:31.109Z,31.89
2023-03-29T13:09:00.636Z,31.56
2023-03-29T13:11:33.789Z,32.01
2023-03-29T13:14:14.495Z,31.45
2023-03-29T13:16:41.665Z,31.05
2023-03-29T13:19:27.236Z,31.49
2023-03-29T13:21:56.698Z,31.96
2023-03-29T13:24:40.944Z,31.52
2023-03-29T13:27:39.612Z,31.88
2023-03-29T13:30:12.840Z,31.07
2023-03-29T13:33:05.169Z,31.40
2023-03-29T13:35:50.482Z,30.36
2023-03-29T13:38:23.616Z,31.84
2023-03-29T13:40:53.026Z,31.00
2023-03-29T13:43:19.457Z,28.69
2023-03-29T13:45:56.834Z,30.60
2023-03-29T13:48:27.158Z,29.22
2023-03-29T13:51:00.903Z,29.54
2023-03-29T13:53:37.274Z,27.36
2023-03-29T13:56:07.856Z,27.68
2023-03-29T13:58:46.509Z,26.51
2023-03-29T14:01:40.261Z,24.81
2023-03-29T14:04:13.455Z,24.76
2023-03-29T14:06:43.052Z,24.66
2023-03-29T14:09:14.348Z,26.26
2023-03-29T14:11:45.236Z,28.25
2023-03-29T14:14:12.142Z,29.19
2023-03-29T14:16:40.645Z,25.60
2023-03-29T14:19:21.968Z,26.96
2023-03-29T14:21:50.335Z,27.35
2023-03-29T14:24:21.454Z,26.60
2023-03-29T14:26:47.955Z,25.47
2023-03-29T14:29:14.811Z,24.98
2023-03-29T14:31:42.420Z,26.21
2023-03-29T14:34:19.218Z,27.96
2023-03-29T14:36:48.774Z,29.00
2023-03-29T14:39:19.138Z,30.53
2023-03-29T14:41:51.859Z,30.34
2023-03-29T14:44:21.783Z,30.12
2023-03-29T14:46:48.425Z,29.79
2023-03-29T14:49:17.422Z,30.44
2023-03-29T14:51:45.873Z,30.41
2023-03-29T14:54:31.767Z,30.98
2023-03-29T14:56:59.510Z,29.34
2023-03-29T14:59:37.250Z,29.48
2023-03-29T15:02:21.634Z,28.29
2023-03-29T15:04:55.526Z,29.20
2023-03-29T15:07:28.318Z,29.43
2023-03-29T15:09:57.156Z,29.30
2023-03-29T15:12:24.316Z,30.97
2023-03-29T15:14:52.819Z,30.77
2023-03-29T15:17:50.389Z,31.50
2023-03-29T15:20:26.067Z,31.27
2023-03-29T15:22:56.589Z,32.88
2023-03-29T15:25:25.978Z,32.80
2023-03-29T15:27:58.967Z,32.76
2023-03-29T15:30:39.395Z,33.27
2023-03-29T15:33:14.496Z,34.09
2023-03-29T15:35:41.722Z,33.61
2023-03-29T15:38:12.232Z,33.97
2023-03-29T15:40:38.848Z,33.92
2023-03-29T15:43:05.952Z,34.17
2023-03-29T15:45:32.490Z,34.88
2023-03-29T15:48:01.963Z,34.83
2023-03-29T15:50:28.680Z,34.89
2023-03-29T15:53:08.636Z,35.02
2023-03-29T15:55:44.612Z,34.51
2023-03-29T15:58:16.680Z,35.25
2023-03-29T16:00:48.603Z,34.93
2023-03-29T16:03:16.119Z,35.60
2023-03-29T16:05:43.392Z,35.55
2023-03-29T16:08:13.652Z,35.22
2023-03-29T16:10:41.866Z,35.93
2023-03-29T16:13:13.278Z,35.50
2023-03-29T16:15:42.212Z,36.17
2023-03-29T16:18:09.448Z,35.73
2023-03-29T16:20:36.056Z,35.94
2023-03-29T16:23:08.642Z,35.87
2023-03-29T16:25:39.915Z,35.70
2023-03-29T16:28:08.438Z,35.62
2023-03-29T16:30:36.539Z,35.65
2023-03-29T16:33:06.342Z,35.61
2023-03-29T16:35:35.634Z,36.28
2023-03-29T16:38:02.120Z,35.75
2023-03-29T16:40:28.649Z,35.88
2023-03-29T16:42:55.238Z,36.58
2023-03-29T16:45:21.767Z,37.04
2023-03-29T16:47:48.256Z,36.54
2023-03-29T16:50:18.024Z,36.54
2023-03-29T16:52:45.900Z,36.82
2023-03-29T16:55:13.068Z,36.87
2023-03-29T16:57:40.156Z,36.92
2023-03-29T17:00:11.316Z,37.00
2023-03-29T17:02:38.043Z,36.63
2023-03-29T17:05:06.023Z,36.84
2023-03-29T17:07:33.446Z,36.69
2023-03-29T17:10:00.160Z,36.92
2023-03-29T17:12:26.896Z,37.26
2023-03-29T17:14:53.300Z,37.13
2023-03-29T17:17:19.736Z,37.00
2023-03-29T17:19:46.284Z,37.03
2023-03-29T17:22:12.877Z,36.92
2023-03-29T17:24:39.323Z,37.54
2023-03-29T17:27:05.865Z,37.19
2023-03-29T17:29:32.322Z,37.75
2023-03-29T17:31:58.822Z,37.59
2023-03-29T17:34:27.013Z,37.19
2023-03-29T17:36:53.997Z,37.58
2023-03-29T17:39:20.470Z,37.74
2023-03-29T17:41:47.625Z,37.95
2023-03-29T17:44:14.178Z,38.19
2023-03-29T17:46:40.754Z,38.46
2023-03-29T17:49:07.256Z,38.11
2023-03-29T17:51:33.680Z,38.46
2023-03-29T17:54:00.190Z,38.20
2023-03-29T17:56:26.705Z,38.28
2023-03-29T17:58:53.519Z,38.89
2023-03-29T18:01:20.312Z,40.29
2023-03-29T18:03:48.192Z,39.87
2023-03-29T18:06:18.023Z,42.54
2023-03-29T18:08:44.675Z,43.47
2023-03-29T18:11:15.963Z,44.50
2023-03-29T18:13:44.337Z,44.17
2023-03-29T18:16:11.857Z,44.50
2023-03-29T18:18:38.630Z,45.40
2023-03-29T18:21:06.913Z,46.71
2023-03-29T18:23:33.869Z,46.51
2023-03-29T18:26:03.988Z,44.16
2023-03-29T18:28:32.211Z,42.04
2023-03-29T18:30:58.809Z,42.78
2023-03-29T18:33:25.701Z,43.37
2023-03-29T18:35:52.443Z,42.60
2023-03-29T18:38:21.245Z,43.82
2023-03-29T18:40:48.978Z,43.73
2023-03-29T18:43:16.132Z,45.15
2023-03-29T18:45:43.343Z,43.94
2023-03-29T18:48:10.406Z,44.70
2023-03-29T18:50:37.537Z,45.09
2023-03-29T18:53:04.399Z,44.50
2023-03-29T18:55:31.101Z,43.93
2023-03-29T18:57:57.517Z,43.35
2023-03-29T19:00:24.296Z,44.09
2023-03-29T19:02:50.904Z,44.68
2023-03-29T19:05:17.616Z,44.65
2023-03-29T19:07:44.152Z,44.42
2023-03-29T19:10:12.017Z,44.84
2023-03-29T19:12:38.576Z,45.49
2023-03-29T19:15:05.716Z,46.00
2023-03-29T19:17:32.232Z,45.92
2023-03-29T19:19:58.926Z,45.74
2023-03-29T19:22:25.776Z,46.44
2023-03-29T19:24:52.257Z,46.12
2023-03-29T19:27:18.774Z,46.26
2023-03-29T19:29:46.098Z,46.63
2023-03-29T19:32:12.553Z,46.56
2023-03-29T19:34:39.020Z,46.63
2023-03-29T19:37:05.758Z,46.86
2023-03-29T19:39:32.677Z,46.58
2023-03-29T19:41:59.221Z,46.94
2023-03-29T19:44:25.716Z,46.93
2023-03-29T19:46:52.214Z,46.81
2023-03-29T19:49:18.803Z,47.43
2023-03-29T19:51:45.474Z,47.58
2023-03-29T19:54:17.281Z,47.43
2023-03-29T19:56:44.137Z,47.58
2023-03-29T19:59:17.653Z,47.72
2023-03-29T20:01:50.798Z,47.96
2023-03-29T20:04:22.645Z,47.77
2023-03-29T20:06:49.224Z,47.86
2023-03-29T20:09:16.195Z,47.54
2023-03-29T20:11:44.345Z,48.38
2023-03-29T20:14:11.628Z,47.91
2023-03-29T20:16:38.417Z,47.78
2023-03-29T20:19:06.942Z,48.15
2023-03-29T20:21:37.249Z,48.36
2023-03-29T20:24:04.769Z,48.08
2023-03-29T20:26:31.882Z,48.28
2023-03-29T20:28:58.289Z,48.40
2023-03-29T20:31:24.928Z,47.84
2023-03-29T20:33:51.520Z,48.36
2023-03-29T20:36:18.505Z,48.47
2023-03-29T20:38:45.504Z,48.10
2023-03-29T20:41:11.977Z,48.72
2023-03-29T20:43:38.466Z,48.65
2023-03-29T20:46:14.192Z,48.83
2023-03-29T20:48:45.922Z,48.85
2023-03-29T20:51:14.025Z,48.43
2023-03-29T20:53:42.806Z,48.83
2023-03-29T20:56:09.330Z,48.96
2023-03-29T20:58:35.762Z,48.88
2023-03-29T21:01:02.593Z,48.98
2023-03-29T21:03:29.387Z,48.69
2023-03-29T21:05:58.137Z,49.12
2023-03-29T21:08:28.435Z,49.69
2023-03-29T21:10:56.179Z,49.07
2023-03-29T21:13:23.360Z,49.24
2023-03-29T21:15:49.839Z,49.21
2023-03-29T21:18:16.680Z,49.58
2023-03-29T21:20:44.151Z,50.23
2023-03-29T21:23:10.631Z,49.96
2023-03-29T21:25:38.005Z,50.48
2023-03-29T21:28:04.486Z,50.74
2023-03-29T21:30:32.098Z,51.05
2023-03-29T21:32:58.870Z,51.24
2023-03-29T21:35:25.383Z,51.40
2023-03-29T21:37:52.572Z,51.07
2023-03-29T21:40:19.346Z,51.27
2023-03-29T21:42:45.774Z,51.93
2023-03-29T21:45:12.286Z,52.23
2023-03-29T21:47:38.769Z,52.81
2023-03-29T21:50:05.929Z,52.59
2023-03-29T21:52:32.390Z,52.89
2023-03-29T21:54:58.833Z,53.31
2023-03-29T21:57:25.559Z,52.81
2023-03-29T21:59:52.105Z,53.39
2023-03-29T22:02:18.592Z,53.85
2023-03-29T22:04:45.305Z,54.25
2023-03-29T22:07:12.413Z,53.18
2023-03-29T22:09:41.347Z,53.58
2023-03-29T22:12:09.912Z,53.60
2023-03-29T22:14:36.378Z,53.47
2023-03-29T22:17:07.819Z,54.56
2023-03-29T22:19:41.680Z,55.35
2023-03-29T22:22:13.119Z,55.57
2023-03-29T22:24:40.683Z,56.84
2023-03-29T22:27:07.188Z,56.38
2023-03-29T22:29:33.653Z,55.98
2023-03-29T22:32:00.159Z,56.19
2023-03-29T22:34:27.440Z,56.43
2023-03-29T22:36:53.900Z,55.99
2023-03-29T22:39:20.420Z,56.87
2023-03-29T22:41:46.856Z,57.27
2023-03-29T22:44:13.400Z,58.42
2023-03-29T22:46:39.883Z,58.79
2023-03-29T22:49:06.424Z,58.75
2023-03-29T22:51:32.861Z,59.19
2023-03-29T22:53:59.345Z,59.07
2023-03-29T22:56:27.096Z,58.94
2023-03-29T22:58:53.525Z,59.48
2023-03-29T23:01:19.986Z,59.73
2023-03-29T23:03:46.473Z,59.55
2023-03-29T23:06:12.904Z,59.16
2023-03-29T23:08:39.443Z,60.59
2023-03-29T23:11:07.245Z,61.27
2023-03-29T23:13:35.092Z,60.48
2023-03-29T23:16:03.406Z,62.25
2023-03-29T23:18:31.744Z,62.79
2023-03-29T23:20:58.937Z,63.06
2023-03-29T23:23:26.902Z,62.71
2023-03-29T23:25:55.375Z,63.27
2023-03-29T23:28:24.851Z,62.40
2023-03-29T23:30:56.989Z,61.76
2023-03-29T23:33:25.658Z,62.55
2023-03-29T23:35:53.133Z,63.75
2023-03-29T23:38:19.662Z,64.28
2023-03-29T23:40:53.523Z,65.12
2023-03-29T23:43:19.960Z,65.14
2023-03-29T23:45:47.087Z,65.67
2023-03-29T23:48:13.948Z,66.13
2023-03-29T23:50:40.350Z,66.34
2023-03-29T23:53:06.852Z,66.89
2023-03-29T23:55:33.337Z,66.34
2023-03-29T23:57:59.787Z,66.13
